Crompond, New York
Current Conditions -  °F | °C
As of 3:56 PM on Wednesday 26 Nov 2014 (Local Time) from KHPN Reporting Station
Light Rain Light Rain  
Wind Chill: 25°   Ceiling: 1400
Heat Index: 34°   Visibility: 3mi
Dew Point: 32°   Wind: 14mph
Humidity: 92%   Direction: 360°N
Pressure: 29.83"   Gusts: NA
Location:  41.29°N, 73.87°W
Report Text: KHPN 262056Z 36012KT 3SM -RA BR FEW010 BKN014 OVC043 01/00 A2983 RMK AO2 SLP105 P0006 60027 T00110000 56062
Loading
Personal Weather Stations






























Interactive Weather Map New forecast layout! Learn more

10-Day Weather Forecast

Advertisements
Track Severe Weather on mobile